sensor_id;sensor_type;location;lat;lon;timestamp;pressure;altitude;pressure_sealevel;temperature;humidity
37312;BME280;23197;53.912;9.138;2022-11-15T00:01:44;101016.44;;;10.37;63.95
37312;BME280;23197;53.912;9.138;2022-11-15T00:04:28;101017.25;;;10.38;63.29
37312;BME280;23197;53.912;9.138;2022-11-15T00:07:12;101017.25;;;10.38;63.19
37312;BME280;23197;53.912;9.138;2022-11-15T00:09:56;101015.56;;;10.37;63.31
37312;BME280;23197;53.912;9.138;2022-11-15T00:12:40;101007.81;;;10.35;63.45
37312;BME280;23197;53.912;9.138;2022-11-15T00:15:24;101013.03;;;10.35;63.00
37312;BME280;23197;53.912;9.138;2022-11-15T00:18:12;101005.50;;;10.30;63.10
37312;BME280;23197;53.912;9.138;2022-11-15T00:21:03;101007.34;;;10.28;63.16
37312;BME280;23197;53.912;9.138;2022-11-15T00:23:48;101013.50;;;10.27;63.13
37312;BME280;23197;53.912;9.138;2022-11-15T00:26:32;101012.66;;;10.27;62.81
37312;BME280;23197;53.912;9.138;2022-11-15T00:29:16;101016.31;;;10.24;63.25
37312;BME280;23197;53.912;9.138;2022-11-15T00:32:00;101014.59;;;10.23;63.01
37312;BME280;23197;53.912;9.138;2022-11-15T00:34:43;101014.59;;;10.23;62.98
37312;BME280;23197;53.912;9.138;2022-11-15T00:37:27;101013.00;;;10.21;63.23
37312;BME280;23197;53.912;9.138;2022-11-15T00:40:11;101007.88;;;10.19;63.22
37312;BME280;23197;53.912;9.138;2022-11-15T00:42:59;101013.09;;;10.19;63.44
37312;BME280;23197;53.912;9.138;2022-11-15T00:45:43;101016.66;;;10.18;63.41
37312;BME280;23197;53.912;9.138;2022-11-15T00:48:28;101014.78;;;10.20;63.69
37312;BME280;23197;53.912;9.138;2022-11-15T00:51:12;101007.69;;;10.22;63.69
37312;BME280;23197;53.912;9.138;2022-11-15T00:53:56;100989.34;;;10.24;63.59
37312;BME280;23197;53.912;9.138;2022-11-15T00:56:40;101003.16;;;10.26;63.73
37312;BME280;23197;53.912;9.138;2022-11-15T00:59:24;100996.16;;;10.26;63.35
37312;BME280;23197;53.912;9.138;2022-11-15T01:02:08;100999.59;;;10.27;63.82
37312;BME280;23197;53.912;9.138;2022-11-15T01:04:52;101000.53;;;10.26;63.23
37312;BME280;23197;53.912;9.138;2022-11-15T01:07:36;100996.16;;;10.26;63.42
37312;BME280;23197;53.912;9.138;2022-11-15T01:10:20;100991.66;;;10.28;63.96
37312;BME280;23197;53.912;9.138;2022-11-15T01:13:04;100995.06;;;10.30;63.68
37312;BME280;23197;53.912;9.138;2022-11-15T01:15:48;100998.19;;;10.36;64.08
37312;BME280;23197;53.912;9.138;2022-11-15T01:18:32;100996.16;;;10.41;64.11
37312;BME280;23197;53.912;9.138;2022-11-15T01:21:18;100984.72;;;10.43;63.91
37312;BME280;23197;53.912;9.138;2022-11-15T01:24:02;100981.78;;;10.48;64.08
37312;BME280;23197;53.912;9.138;2022-11-15T01:26:46;100974.72;;;10.50;64.08
37312;BME280;23197;53.912;9.138;2022-11-15T01:29:30;100971.81;;;10.54;64.19
37312;BME280;23197;53.912;9.138;2022-11-15T01:32:14;100972.63;;;10.55;63.87
37312;BME280;23197;53.912;9.138;2022-11-15T01:34:58;100968.91;;;10.59;64.11
37312;BME280;23197;53.912;9.138;2022-11-15T01:37:42;100982.91;;;10.58;63.66
37312;BME280;23197;53.912;9.138;2022-11-15T01:40:26;100982.72;;;10.61;63.79
37312;BME280;23197;53.912;9.138;2022-11-15T01:43:27;100971.53;;;10.59;63.77
37312;BME280;23197;53.912;9.138;2022-11-15T01:49:11;100973.41;;;10.57;64.02
37312;BME280;23197;53.912;9.138;2022-11-15T01:51:57;100964.72;;;10.56;63.93
37312;BME280;23197;53.912;9.138;2022-11-15T01:54:42;100974.31;;;10.56;63.79
37312;BME280;23197;53.912;9.138;2022-11-15T01:57:26;100972.63;;;10.55;63.68
37312;BME280;23197;53.912;9.138;2022-11-15T02:00:11;100964.06;;;10.53;64.06
37312;BME280;23197;53.912;9.138;2022-11-15T02:02:55;100968.34;;;10.54;63.77
37312;BME280;23197;53.912;9.138;2022-11-15T02:05:39;100961.56;;;10.51;63.96
37312;BME280;23197;53.912;9.138;2022-11-15T02:08:24;100954.66;;;10.50;64.03
37312;BME280;23197;53.912;9.138;2022-11-15T02:11:09;100952.03;;;10.50;63.59
37312;BME280;23197;53.912;9.138;2022-11-15T02:13:54;100946.88;;;10.49;63.84
37312;BME280;23197;53.912;9.138;2022-11-15T02:16:58;100946.25;;;10.45;64.04
37312;BME280;23197;53.912;9.138;2022-11-15T02:32:37;100948.56;;;10.36;64.15
37312;BME280;23197;53.912;9.138;2022-11-15T02:35:55;100943.44;;;10.34;63.77
37312;BME280;23197;53.912;9.138;2022-11-15T02:38:45;100945.97;;;10.36;64.12
37312;BME280;23197;53.912;9.138;2022-11-15T02:41:35;100944.28;;;10.35;63.98
37312;BME280;23197;53.912;9.138;2022-11-15T02:44:27;100945.13;;;10.35;64.05
37312;BME280;23197;53.912;9.138;2022-11-15T02:47:16;100932.16;;;10.33;64.31
37312;BME280;23197;53.912;9.138;2022-11-15T02:50:05;100925.25;;;10.32;63.89
37312;BME280;23197;53.912;9.138;2022-11-15T02:52:51;100934.78;;;10.33;63.86
37312;BME280;23197;53.912;9.138;2022-11-15T02:55:38;100923.59;;;10.31;63.98
37312;BME280;23197;53.912;9.138;2022-11-15T02:58:57;100923.75;;;10.28;64.12
37312;BME280;23197;53.912;9.138;2022-11-15T03:11:13;100910.91;;;10.25;63.87
37312;BME280;23197;53.912;9.138;2022-11-15T03:19:45;100910.13;;;10.23;63.78
37312;BME280;23197;53.912;9.138;2022-11-15T03:22:34;100916.25;;;10.22;63.70
37312;BME280;23197;53.912;9.138;2022-11-15T03:25:24;100911.97;;;10.21;63.66
37312;BME280;23197;53.912;9.138;2022-11-15T03:28:14;100904.13;;;10.21;63.52
37312;BME280;23197;53.912;9.138;2022-11-15T03:31:01;100897.97;;;10.22;63.65
37312;BME280;23197;53.912;9.138;2022-11-15T03:34:09;100909.38;;;10.21;63.71
37312;BME280;23197;53.912;9.138;2022-11-15T03:36:55;100902.47;;;10.20;63.77
37312;BME280;23197;53.912;9.138;2022-11-15T03:39:39;100913.84;;;10.19;63.70
37312;BME280;23197;53.912;9.138;2022-11-15T03:42:31;100916.56;;;10.18;63.63
37312;BME280;23197;53.912;9.138;2022-11-15T03:45:29;100914.03;;;10.16;63.96
37312;BME280;23197;53.912;9.138;2022-11-15T03:48:20;100905.28;;;10.17;63.95
37312;BME280;23197;53.912;9.138;2022-11-15T03:51:06;100903.56;;;10.16;63.80
37312;BME280;23197;53.912;9.138;2022-11-15T03:53:51;100908.78;;;10.16;63.96
37312;BME280;23197;53.912;9.138;2022-11-15T03:56:35;100919.25;;;10.16;64.15
37312;BME280;23197;53.912;9.138;2022-11-15T03:59:19;100917.56;;;10.15;63.92
37312;BME280;23197;53.912;9.138;2022-11-15T04:02:03;100917.56;;;10.15;63.85
37312;BME280;23197;53.912;9.138;2022-11-15T04:04:47;100918.41;;;10.16;64.14
37312;BME280;23197;53.912;9.138;2022-11-15T04:07:30;100929.69;;;10.16;64.09
37312;BME280;23197;53.912;9.138;2022-11-15T04:10:15;100921.78;;;10.18;64.03
37312;BME280;23197;53.912;9.138;2022-11-15T04:12:59;100928.69;;;10.19;64.29
37312;BME280;23197;53.912;9.138;2022-11-15T04:15:43;100925.31;;;10.17;64.50
37312;BME280;23197;53.912;9.138;2022-11-15T04:18:27;100931.19;;;10.20;64.38
37312;BME280;23197;53.912;9.138;2022-11-15T04:21:11;100927.56;;;10.23;64.23
37312;BME280;23197;53.912;9.138;2022-11-15T04:24:13;100930.66;;;10.29;64.83
37312;BME280;23197;53.912;9.138;2022-11-15T04:26:57;100927.78;;;10.34;65.05
37312;BME280;23197;53.912;9.138;2022-11-15T04:29:41;100928.22;;;10.41;65.24
37312;BME280;23197;53.912;9.138;2022-11-15T04:32:25;100917.41;;;10.47;65.10
37312;BME280;23197;53.912;9.138;2022-11-15T04:35:09;100930.81;;;10.55;65.28
37312;BME280;23197;53.912;9.138;2022-11-15T04:37:54;100936.63;;;10.60;65.31
37312;BME280;23197;53.912;9.138;2022-11-15T04:40:38;100931.84;;;10.67;65.28
37312;BME280;23197;53.912;9.138;2022-11-15T04:43:22;100930.63;;;10.72;65.18
37312;BME280;23197;53.912;9.138;2022-11-15T04:46:06;100925.75;;;10.80;65.42
37312;BME280;23197;53.912;9.138;2022-11-15T04:48:51;100926.28;;;10.85;65.59
37312;BME280;23197;53.912;9.138;2022-11-15T04:51:35;100920.56;;;10.93;65.58
37312;BME280;23197;53.912;9.138;2022-11-15T04:54:19;100923.53;;;11.01;65.46
37312;BME280;23197;53.912;9.138;2022-11-15T04:57:03;100927.53;;;11.07;65.50
37312;BME280;23197;53.912;9.138;2022-11-15T04:59:47;100930.50;;;11.15;65.39
37312;BME280;23197;53.912;9.138;2022-11-15T05:02:31;100924.84;;;11.21;65.25
37312;BME280;23197;53.912;9.138;2022-11-15T05:05:35;100925.28;;;11.28;65.60
37312;BME280;23197;53.912;9.138;2022-11-15T05:08:19;100920.50;;;11.34;65.49
37312;BME280;23197;53.912;9.138;2022-11-15T05:11:03;100925.34;;;11.40;65.37
37312;BME280;23197;53.912;9.138;2022-11-15T05:13:47;100923.25;;;11.46;65.08
37312;BME280;23197;53.912;9.138;2022-11-15T05:16:31;100933.44;;;11.50;65.12
37312;BME280;23197;53.912;9.138;2022-11-15T05:19:15;100919.22;;;11.54;65.10
37312;BME280;23197;53.912;9.138;2022-11-15T05:21:59;100921.41;;;11.60;65.17
37312;BME280;23197;53.912;9.138;2022-11-15T05:24:43;100927.28;;;11.64;64.94
37312;BME280;23197;53.912;9.138;2022-11-15T05:27:27;100926.03;;;11.69;65.15
37312;BME280;23197;53.912;9.138;2022-11-15T05:30:11;100923.94;;;11.75;65.05
37312;BME280;23197;53.912;9.138;2022-11-15T05:32:55;100927.94;;;11.80;65.14
37312;BME280;23197;53.912;9.138;2022-11-15T05:35:41;100930.25;;;11.85;65.19
37312;BME280;23197;53.912;9.138;2022-11-15T05:38:26;100923.03;;;11.88;65.01
37312;BME280;23197;53.912;9.138;2022-11-15T05:41:10;100919.25;;;11.92;64.98
37312;BME280;23197;53.912;9.138;2022-11-15T05:43:56;100924.09;;;11.99;64.73
37312;BME280;23197;53.912;9.138;2022-11-15T05:46:40;100927.22;;;12.04;64.72
37312;BME280;23197;53.912;9.138;2022-11-15T05:49:29;100918.97;;;12.10;64.69
37312;BME280;23197;53.912;9.138;2022-11-15T05:52:17;100919.38;;;12.16;64.76
37312;BME280;23197;53.912;9.138;2022-11-15T05:55:05;100931.00;;;12.25;64.77
37312;BME280;23197;53.912;9.138;2022-11-15T05:57:50;100924.59;;;12.29;64.47
37312;BME280;23197;53.912;9.138;2022-11-15T06:00:34;100920.19;;;12.30;64.60
37312;BME280;23197;53.912;9.138;2022-11-15T06:03:18;100914.53;;;12.36;64.56
37312;BME280;23197;53.912;9.138;2022-11-15T06:06:02;100916.00;;;12.40;64.34
37312;BME280;23197;53.912;9.138;2022-11-15T06:08:46;100914.34;;;12.39;64.50
37312;BME280;23197;53.912;9.138;2022-11-15T06:11:31;100915.34;;;12.49;64.53
37312;BME280;23197;53.912;9.138;2022-11-15T06:14:15;100919.50;;;12.52;64.18
37312;BME280;23197;53.912;9.138;2022-11-15T06:16:59;100918.59;;;12.53;64.36
37312;BME280;23197;53.912;9.138;2022-11-15T06:19:43;100915.03;;;12.54;64.26
37312;BME280;23197;53.912;9.138;2022-11-15T06:22:27;100915.75;;;12.56;64.22
37312;BME280;23197;53.912;9.138;2022-11-15T06:25:11;100914.91;;;12.55;63.91
37312;BME280;23197;53.912;9.138;2022-11-15T06:27:56;100907.75;;;12.57;64.20
37312;BME280;23197;53.912;9.138;2022-11-15T06:30:40;100906.72;;;12.60;64.07
37312;BME280;23197;53.912;9.138;2022-11-15T06:33:24;100914.34;;;12.63;63.99
37312;BME280;23197;53.912;9.138;2022-11-15T06:36:11;100915.06;;;12.65;63.88
37312;BME280;23197;53.912;9.138;2022-11-15T06:38:57;100922.03;;;12.66;63.83
37312;BME280;23197;53.912;9.138;2022-11-15T06:41:41;100924.53;;;12.67;63.68
37312;BME280;23197;53.912;9.138;2022-11-15T06:44:25;100908.78;;;12.67;63.75
37312;BME280;23197;53.912;9.138;2022-11-15T06:47:09;100904.38;;;12.68;63.81
37312;BME280;23197;53.912;9.138;2022-11-15T06:49:53;100909.63;;;12.68;63.67
37312;BME280;23197;53.912;9.138;2022-11-15T06:52:37;100916.56;;;12.69;63.74
37312;BME280;23197;53.912;9.138;2022-11-15T06:55:21;100916.56;;;12.69;63.75
37312;BME280;23197;53.912;9.138;2022-11-15T06:58:05;100918.66;;;12.64;63.85
37312;BME280;23197;53.912;9.138;2022-11-15T07:00:49;100926.19;;;12.68;63.70
37312;BME280;23197;53.912;9.138;2022-11-15T07:03:41;100917.63;;;12.66;63.73
37312;BME280;23197;53.912;9.138;2022-11-15T07:06:25;100925.38;;;12.68;63.60
37312;BME280;23197;53.912;9.138;2022-11-15T07:09:09;100929.78;;;12.67;63.68
37312;BME280;23197;53.912;9.138;2022-11-15T07:11:53;100934.19;;;12.67;63.71
37312;BME280;23197;53.912;9.138;2022-11-15T07:14:37;100938.59;;;12.66;63.73
37312;BME280;23197;53.912;9.138;2022-11-15T07:17:21;100939.53;;;12.65;63.73
37312;BME280;23197;53.912;9.138;2022-11-15T07:20:05;100936.06;;;12.65;63.91
37312;BME280;23197;53.912;9.138;2022-11-15T07:22:49;100937.75;;;12.66;63.88
37312;BME280;23197;53.912;9.138;2022-11-15T07:25:33;100941.09;;;12.68;64.09
37312;BME280;23197;53.912;9.138;2022-11-15T07:28:17;100928.72;;;12.70;63.93
37312;BME280;23197;53.912;9.138;2022-11-15T07:31:06;100921.59;;;12.72;64.29
37312;BME280;23197;53.912;9.138;2022-11-15T07:33:51;100928.28;;;12.76;64.30
37312;BME280;23197;53.912;9.138;2022-11-15T07:36:35;100939.50;;;12.78;64.21
37312;BME280;23197;53.912;9.138;2022-11-15T07:39:19;100934.16;;;12.80;64.25
37312;BME280;23197;53.912;9.138;2022-11-15T07:42:03;100934.03;;;12.81;64.26
37312;BME280;23197;53.912;9.138;2022-11-15T07:45:06;100948.81;;;12.82;64.41
37312;BME280;23197;53.912;9.138;2022-11-15T07:47:50;100937.38;;;12.83;64.29
37312;BME280;23197;53.912;9.138;2022-11-15T07:50:35;100937.28;;;12.85;64.43
37312;BME280;23197;53.912;9.138;2022-11-15T07:53:18;100943.38;;;12.85;64.22
37312;BME280;23197;53.912;9.138;2022-11-15T07:56:06;100943.38;;;12.85;64.41
37312;BME280;23197;53.912;9.138;2022-11-15T07:58:51;100943.03;;;12.90;64.34
37312;BME280;23197;53.912;9.138;2022-11-15T08:01:35;100948.19;;;12.91;64.44
37312;BME280;23197;53.912;9.138;2022-11-15T08:04:19;100937.44;;;12.94;64.33
37312;BME280;23197;53.912;9.138;2022-11-15T08:07:02;100942.47;;;12.97;64.35
37312;BME280;23197;53.912;9.138;2022-11-15T08:09:46;100943.94;;;13.01;64.50
37312;BME280;23197;53.912;9.138;2022-11-15T08:12:30;100949.69;;;13.07;64.49
37312;BME280;23197;53.912;9.138;2022-11-15T08:15:15;100940.53;;;13.12;64.39
37312;BME280;23197;53.912;9.138;2022-11-15T08:18:01;100942.91;;;13.15;64.46
37312;BME280;23197;53.912;9.138;2022-11-15T08:20:45;100934.72;;;13.20;64.38
37312;BME280;23197;53.912;9.138;2022-11-15T08:23:29;100950.19;;;13.24;64.43
37312;BME280;23197;53.912;9.138;2022-11-15T08:26:13;100952.34;;;13.30;64.26
37312;BME280;23197;53.912;9.138;2022-11-15T08:28:58;100939.81;;;13.34;64.18
37312;BME280;23197;53.912;9.138;2022-11-15T08:31:42;100942.00;;;13.40;64.33
37312;BME280;23197;53.912;9.138;2022-11-15T08:34:26;100944.88;;;13.48;64.35
37312;BME280;23197;53.912;9.138;2022-11-15T08:37:10;100950.63;;;13.53;64.34
37312;BME280;23197;53.912;9.138;2022-11-15T08:39:54;100953.78;;;13.58;64.16
37312;BME280;23197;53.912;9.138;2022-11-15T08:42:37;100952.09;;;13.57;64.34
37312;BME280;23197;53.912;9.138;2022-11-15T08:45:21;100958.31;;;13.68;64.14
37312;BME280;23197;53.912;9.138;2022-11-15T08:48:05;100948.19;;;13.74;64.10
37312;BME280;23197;53.912;9.138;2022-11-15T08:50:53;100946.91;;;13.80;64.16
37312;BME280;23197;53.912;9.138;2022-11-15T08:53:38;100953.34;;;13.87;64.03
37312;BME280;23197;53.912;9.138;2022-11-15T08:56:22;100951.47;;;13.89;64.09
37312;BME280;23197;53.912;9.138;2022-11-15T08:59:06;100952.91;;;13.93;64.13
37312;BME280;23197;53.912;9.138;2022-11-15T09:01:50;100956.97;;;13.97;64.01
37312;BME280;23197;53.912;9.138;2022-11-15T09:04:34;100948.84;;;14.00;64.11
37312;BME280;23197;53.912;9.138;2022-11-15T09:07:18;100947.53;;;14.06;63.98
37312;BME280;23197;53.912;9.138;2022-11-15T09:10:02;100945.41;;;14.11;64.05
37312;BME280;23197;53.912;9.138;2022-11-15T09:12:46;100944.09;;;14.17;63.93
37312;BME280;23197;53.912;9.138;2022-11-15T09:15:31;100935.84;;;14.21;64.01
37312;BME280;23197;53.912;9.138;2022-11-15T09:18:15;100928.44;;;14.26;63.93
37312;BME280;23197;53.912;9.138;2022-11-15T09:21:00;100935.16;;;14.30;63.92
37312;BME280;23197;53.912;9.138;2022-11-15T09:23:45;100933.09;;;14.34;63.88
37312;BME280;23197;53.912;9.138;2022-11-15T09:26:29;100934.41;;;14.39;64.03
37312;BME280;23197;53.912;9.138;2022-11-15T09:29:13;100936.94;;;14.41;64.19
37312;BME280;23197;53.912;9.138;2022-11-15T09:31:57;100931.56;;;14.54;64.21
37312;BME280;23197;53.912;9.138;2022-11-15T09:34:41;100934.31;;;14.63;64.26
37312;BME280;23197;53.912;9.138;2022-11-15T09:37:25;100935.38;;;14.72;64.12
37312;BME280;23197;53.912;9.138;2022-11-15T09:40:11;100939.09;;;14.81;64.28
37312;BME280;23197;53.912;9.138;2022-11-15T09:49:14;100945.75;;;14.96;63.52
37312;BME280;23197;53.912;9.138;2022-11-15T09:51:59;100944.53;;;15.00;63.31
37312;BME280;23197;53.912;9.138;2022-11-15T09:54:36;100950.38;;;15.04;63.35
37312;BME280;23197;53.912;9.138;2022-11-15T10:05:24;100943.03;;;15.18;63.04
37312;BME280;23197;53.912;9.138;2022-11-15T10:08:05;100942.78;;;15.22;62.69
37312;BME280;23197;53.912;9.138;2022-11-15T10:13:13;100930.00;;;15.17;62.42
37312;BME280;23197;53.912;9.138;2022-11-15T10:15:43;100929.63;;;15.22;62.48
37312;BME280;23197;53.912;9.138;2022-11-15T10:21:12;100924.72;;;15.17;62.20
37312;BME280;23197;53.912;9.138;2022-11-15T10:23:39;100925.34;;;15.20;62.13
37312;BME280;23197;53.912;9.138;2022-11-15T10:26:08;100916.47;;;15.22;62.07
37312;BME280;23197;53.912;9.138;2022-11-15T10:28:36;100914.31;;;15.27;62.12
37312;BME280;23197;53.912;9.138;2022-11-15T10:31:02;100908.75;;;15.30;62.35
37312;BME280;23197;53.912;9.138;2022-11-15T10:33:33;100916.28;;;15.34;62.43
37312;BME280;23197;53.912;9.138;2022-11-15T10:36:14;100920.47;;;15.37;62.16
37312;BME280;23197;53.912;9.138;2022-11-15T10:41:21;100907.88;;;15.40;61.96
37312;BME280;23197;53.912;9.138;2022-11-15T10:44:06;100900.81;;;15.41;62.19
37312;BME280;23197;53.912;9.138;2022-11-15T10:46:35;100890.59;;;15.47;62.18
37312;BME280;23197;53.912;9.138;2022-11-15T10:55:04;100887.31;;;15.55;61.88
37312;BME280;23197;53.912;9.138;2022-11-15T10:57:12;100883.72;;;15.56;61.73
37312;BME280;23197;53.912;9.138;2022-11-15T10:59:39;100882.50;;;15.60;61.66
37312;BME280;23197;53.912;9.138;2022-11-15T11:04:58;100878.81;;;15.63;61.75
37312;BME280;23197;53.912;9.138;2022-11-15T11:07:27;100874.38;;;15.63;61.52
37312;BME280;23197;53.912;9.138;2022-11-15T11:10:20;100878.81;;;15.63;61.56
37312;BME280;23197;53.912;9.138;2022-11-15T11:12:46;100885.63;;;15.65;61.33
37312;BME280;23197;53.912;9.138;2022-11-15T11:15:14;100878.66;;;15.64;61.19
37312;BME280;23197;53.912;9.138;2022-11-15T11:17:51;100874.38;;;15.63;61.37
37312;BME280;23197;53.912;9.138;2022-11-15T11:25:56;100869.94;;;15.64;61.37
37312;BME280;23197;53.912;9.138;2022-11-15T11:42:06;100853.09;;;15.76;61.29
37312;BME280;23197;53.912;9.138;2022-11-15T11:44:48;100843.81;;;15.82;61.45
37312;BME280;23197;53.912;9.138;2022-11-15T11:47:21;100844.28;;;15.87;61.16
37312;BME280;23197;53.912;9.138;2022-11-15T11:49:51;100837.38;;;15.95;61.30
37312;BME280;23197;53.912;9.138;2022-11-15T11:52:29;100842.69;;;16.05;61.36
37312;BME280;23197;53.912;9.138;2022-11-15T11:57:30;100831.25;;;16.25;61.48
37312;BME280;23197;53.912;9.138;2022-11-15T12:02:43;100840.88;;;16.46;61.38
37312;BME280;23197;53.912;9.138;2022-11-15T12:05:12;100840.75;;;16.57;61.52
37312;BME280;23197;53.912;9.138;2022-11-15T12:07:39;100836.31;;;16.67;60.88
37312;BME280;23197;53.912;9.138;2022-11-15T12:10:25;100835.66;;;16.75;61.00
37312;BME280;23197;53.912;9.138;2022-11-15T12:13:00;100823.16;;;16.87;60.90
37312;BME280;23197;53.912;9.138;2022-11-15T12:15:32;100822.47;;;16.94;60.63
37312;BME280;23197;53.912;9.138;2022-11-15T12:18:00;100817.88;;;17.06;60.57
37312;BME280;23197;53.912;9.138;2022-11-15T12:20:30;100813.53;;;17.15;60.02
37312;BME280;23197;53.912;9.138;2022-11-15T12:23:04;100804.78;;;17.24;59.90
37312;BME280;23197;53.912;9.138;2022-11-15T12:25:39;100800.59;;;17.31;59.69
37312;BME280;23197;53.912;9.138;2022-11-15T12:28:14;100805.84;;;17.41;59.56
37312;BME280;23197;53.912;9.138;2022-11-15T12:30:54;100801.38;;;17.51;59.42
37312;BME280;23197;53.912;9.138;2022-11-15T12:33:36;100801.75;;;17.66;58.94
37312;BME280;23197;53.912;9.138;2022-11-15T12:36:08;100796.56;;;17.83;58.56
37312;BME280;23197;53.912;9.138;2022-11-15T12:41:25;100797.38;;;18.21;58.61
37312;BME280;23197;53.912;9.138;2022-11-15T12:43:51;100785.38;;;18.44;58.15
37312;BME280;23197;53.912;9.138;2022-11-15T13:02:24;100782.72;;;20.61;54.84
37312;BME280;23197;53.912;9.138;2022-11-15T13:04:51;100773.91;;;20.84;54.17
37312;BME280;23197;53.912;9.138;2022-11-15T13:13:03;100782.38;;;21.29;52.39
37312;BME280;23197;53.912;9.138;2022-11-15T13:15:45;100791.16;;;21.37;50.79
37312;BME280;23197;53.912;9.138;2022-11-15T13:18:30;100785.34;;;21.42;50.74
37312;BME280;23197;53.912;9.138;2022-11-15T13:20:56;100785.84;;;21.54;50.63
37312;BME280;23197;53.912;9.138;2022-11-15T13:23:22;100788.81;;;21.59;50.49
37312;BME280;23197;53.912;9.138;2022-11-15T13:25:56;100778.78;;;21.69;50.32
37312;BME280;23197;53.912;9.138;2022-11-15T13:28:27;100779.63;;;21.70;49.22
37312;BME280;23197;53.912;9.138;2022-11-15T13:30:57;100779.81;;;21.68;49.39
37312;BME280;23197;53.912;9.138;2022-11-15T13:33:33;100771.47;;;21.71;48.50
37312;BME280;23197;53.912;9.138;2022-11-15T13:36:03;100768.28;;;21.76;48.25
37312;BME280;23197;53.912;9.138;2022-11-15T13:38:32;100763.66;;;21.70;48.53
37312;BME280;23197;53.912;9.138;2022-11-15T13:41:18;100760.91;;;21.55;48.55
37312;BME280;23197;53.912;9.138;2022-11-15T13:43:46;100763.75;;;21.37;48.15
37312;BME280;23197;53.912;9.138;2022-11-15T13:46:20;100761.47;;;21.09;47.90
37312;BME280;23197;53.912;9.138;2022-11-15T13:48:51;100755.50;;;20.83;48.27
37312;BME280;23197;53.912;9.138;2022-11-15T13:53:59;100748.13;;;20.28;48.54
37312;BME280;23197;53.912;9.138;2022-11-15T13:56:27;100739.09;;;20.04;48.73
37312;BME280;23197;53.912;9.138;2022-11-15T13:58:54;100741.38;;;19.83;48.98
37312;BME280;23197;53.912;9.138;2022-11-15T14:01:21;100743.28;;;19.65;49.55
37312;BME280;23197;53.912;9.138;2022-11-15T14:03:50;100742.31;;;19.48;49.78
37312;BME280;23197;53.912;9.138;2022-11-15T14:06:18;100741.09;;;19.34;50.22
37312;BME280;23197;53.912;9.138;2022-11-15T14:11:24;100732.78;;;19.03;50.76
37312;BME280;23197;53.912;9.138;2022-11-15T14:14:08;100723.56;;;18.89;51.49
37312;BME280;23197;53.912;9.138;2022-11-15T14:16:45;100722.09;;;18.87;52.06
37312;BME280;23197;53.912;9.138;2022-11-15T14:22:15;100723.06;;;18.86;51.94
37312;BME280;23197;53.912;9.138;2022-11-15T14:24:43;100726.53;;;18.86;51.75
37312;BME280;23197;53.912;9.138;2022-11-15T14:27:35;100730.09;;;18.77;51.54
37312;BME280;23197;53.912;9.138;2022-11-15T14:30:01;100732.03;;;18.67;51.13
37312;BME280;23197;53.912;9.138;2022-11-15T14:32:28;100736.00;;;18.53;51.12
37312;BME280;23197;53.912;9.138;2022-11-15T14:34:59;100734.72;;;18.39;50.95
37312;BME280;23197;53.912;9.138;2022-11-15T14:37:30;100734.28;;;18.26;51.29
37312;BME280;23197;53.912;9.138;2022-11-15T14:40:04;100741.75;;;18.13;51.54
37312;BME280;23197;53.912;9.138;2022-11-15T14:42:31;100739.97;;;18.04;51.85
37312;BME280;23197;53.912;9.138;2022-11-15T14:44:56;100741.16;;;17.92;52.13
37312;BME280;23197;53.912;9.138;2022-11-15T14:47:22;100743.69;;;17.83;52.40
37312;BME280;23197;53.912;9.138;2022-11-15T14:49:47;100738.47;;;17.74;52.67
37312;BME280;23197;53.912;9.138;2022-11-15T14:54:49;100738.91;;;17.59;52.99
37312;BME280;23197;53.912;9.138;2022-11-15T14:57:15;100742.28;;;17.52;53.10
37312;BME280;23197;53.912;9.138;2022-11-15T14:59:40;100749.13;;;17.45;53.20
37312;BME280;23197;53.912;9.138;2022-11-15T15:02:32;100744.16;;;17.32;53.38
37312;BME280;23197;53.912;9.138;2022-11-15T15:04:58;100734.31;;;17.24;53.44
37312;BME280;23197;53.912;9.138;2022-11-15T15:07:26;100736.84;;;17.16;53.57
37312;BME280;23197;53.912;9.138;2022-11-15T15:09:52;100734.19;;;17.06;53.54
37312;BME280;23197;53.912;9.138;2022-11-15T15:12:22;100734.38;;;16.95;53.86
37312;BME280;23197;53.912;9.138;2022-11-15T15:14:49;100732.44;;;16.88;53.87
37312;BME280;23197;53.912;9.138;2022-11-15T15:17:16;100729.13;;;16.76;53.90
37312;BME280;23197;53.912;9.138;2022-11-15T15:19:42;100738.13;;;16.64;54.02
37312;BME280;23197;53.912;9.138;2022-11-15T15:22:16;100729.78;;;16.49;54.37
37312;BME280;23197;53.912;9.138;2022-11-15T15:24:43;100730.63;;;16.40;54.63
37312;BME280;23197;53.912;9.138;2022-11-15T15:27:09;100734.22;;;16.29;54.61
37312;BME280;23197;53.912;9.138;2022-11-15T15:29:35;100736.16;;;16.17;54.96
37312;BME280;23197;53.912;9.138;2022-11-15T15:32:01;100737.94;;;16.07;55.32
37312;BME280;23197;53.912;9.138;2022-11-15T15:34:26;100729.88;;;15.99;55.32
37312;BME280;23197;53.912;9.138;2022-11-15T15:37:24;100722.22;;;15.86;55.70
37312;BME280;23197;53.912;9.138;2022-11-15T15:39:55;100723.44;;;15.82;55.76
37312;BME280;23197;53.912;9.138;2022-11-15T15:42:22;100714.97;;;15.79;55.81
37312;BME280;23197;53.912;9.138;2022-11-15T15:44:48;100714.53;;;15.73;55.80
37312;BME280;23197;53.912;9.138;2022-11-15T15:47:23;100712.69;;;15.64;56.10
37312;BME280;23197;53.912;9.138;2022-11-15T15:49:50;100708.53;;;15.62;56.27
37312;BME280;23197;53.912;9.138;2022-11-15T15:52:16;100710.56;;;15.58;56.46
37312;BME280;23197;53.912;9.138;2022-11-15T15:54:42;100702.25;;;15.53;56.66
37312;BME280;23197;53.912;9.138;2022-11-15T15:57:09;100700.69;;;15.51;56.77
37312;BME280;23197;53.912;9.138;2022-11-15T15:59:36;100702.63;;;15.48;56.91
37312;BME280;23197;53.912;9.138;2022-11-15T16:02:02;100703.75;;;15.46;56.94